createdAt,value
2023-04-23T00:01:05.570Z,23.28
2023-04-23T00:03:36.274Z,22.13
2023-04-23T00:06:06.019Z,22.93
2023-04-23T00:08:34.608Z,22.05
2023-04-23T00:11:02.680Z,23.16
2023-04-23T00:13:29.431Z,23.74
2023-04-23T00:15:55.933Z,24.12
2023-04-23T00:18:22.366Z,23.51
2023-04-23T00:20:48.799Z,23.27
2023-04-23T00:23:15.246Z,22.68
2023-04-23T00:25:41.650Z,23.19
2023-04-23T00:28:08.294Z,22.66
2023-04-23T00:30:34.728Z,22.55
2023-04-23T00:33:01.270Z,22.61
2023-04-23T00:35:27.701Z,23.00
2023-04-23T00:37:54.089Z,23.51
2023-04-23T00:40:20.697Z,23.49
2023-04-23T00:42:48.740Z,23.55
2023-04-23T00:45:15.356Z,23.26
2023-04-23T00:47:41.944Z,23.12
2023-04-23T00:50:08.628Z,21.88
2023-04-23T00:52:36.038Z,21.94
2023-04-23T00:55:12.496Z,22.04
2023-04-23T00:57:39.136Z,22.22
2023-04-23T01:00:05.887Z,22.20
2023-04-23T01:02:32.659Z,21.71
2023-04-23T01:05:00.898Z,22.31
2023-04-23T01:07:27.717Z,22.53
2023-04-23T01:09:54.465Z,21.91
2023-04-23T01:12:20.858Z,22.32
2023-04-23T01:14:47.724Z,21.74
2023-04-23T01:17:14.368Z,21.92
2023-04-23T01:19:41.008Z,21.83
2023-04-23T01:22:10.062Z,22.03
2023-04-23T01:24:36.787Z,22.88
2023-04-23T01:27:03.747Z,22.28
2023-04-23T01:29:30.632Z,22.18
2023-04-23T01:31:57.500Z,22.66
2023-04-23T01:34:23.918Z,22.02
2023-04-23T01:36:51.064Z,22.28
2023-04-23T01:39:17.779Z,21.63
2023-04-23T01:41:44.314Z,22.36
2023-04-23T01:44:10.805Z,22.15
2023-04-23T01:46:37.781Z,22.23
2023-04-23T01:49:04.526Z,22.24
2023-04-23T01:51:31.108Z,22.11
2023-04-23T01:53:57.502Z,22.29
2023-04-23T01:56:26.117Z,21.98
2023-04-23T01:58:52.526Z,22.21
2023-04-23T02:01:18.928Z,22.23
2023-04-23T02:03:46.007Z,22.06
2023-04-23T02:06:12.828Z,21.98
2023-04-23T02:08:39.731Z,22.41
2023-04-23T02:11:09.068Z,22.11
2023-04-23T02:13:35.726Z,21.02
2023-04-23T02:16:02.139Z,21.17
2023-04-23T02:18:28.532Z,21.55
2023-04-23T02:20:54.967Z,21.64
2023-04-23T02:23:21.394Z,22.29
2023-04-23T02:25:47.767Z,21.85
2023-04-23T02:28:14.204Z,20.95
2023-04-23T02:30:45.831Z,21.18
2023-04-23T02:33:12.739Z,20.90
2023-04-23T02:35:39.138Z,21.85
2023-04-23T02:38:05.555Z,21.63
2023-04-23T02:40:31.937Z,21.46
2023-04-23T02:42:58.313Z,21.92
2023-04-23T02:45:24.668Z,22.02
2023-04-23T02:47:53.315Z,21.87
2023-04-23T02:50:19.778Z,21.71
2023-04-23T02:52:47.779Z,21.38
2023-04-23T02:55:14.168Z,21.40
2023-04-23T02:57:40.976Z,21.32
2023-04-23T03:00:08.354Z,21.41
2023-04-23T03:02:35.042Z,21.20
2023-04-23T03:05:01.803Z,21.13
2023-04-23T03:07:28.226Z,21.09
2023-04-23T03:09:54.649Z,21.41
2023-04-23T03:12:21.278Z,21.56
2023-04-23T03:14:47.669Z,21.70
2023-04-23T03:17:14.073Z,21.37
2023-04-23T03:19:40.555Z,20.94
2023-04-23T03:22:07.232Z,21.18
2023-04-23T03:24:34.854Z,21.19
2023-04-23T03:27:01.257Z,20.95
2023-04-23T03:29:28.264Z,21.11
2023-04-23T03:31:54.650Z,21.16
2023-04-23T03:34:21.336Z,21.35
2023-04-23T03:36:48.731Z,21.48
2023-04-23T03:39:15.526Z,21.51
2023-04-23T03:41:42.151Z,21.08
2023-04-23T03:44:08.558Z,21.05
2023-04-23T03:46:35.023Z,21.08
2023-04-23T03:49:01.492Z,21.07
2023-04-23T03:51:28.112Z,21.88
2023-04-23T03:53:54.488Z,20.90
2023-04-23T03:56:21.410Z,21.19
2023-04-23T03:58:47.864Z,21.30
2023-04-23T04:01:14.314Z,21.86
2023-04-23T04:03:41.082Z,21.75
2023-04-23T04:06:07.957Z,21.30
2023-04-23T04:08:34.315Z,20.52
2023-04-23T04:11:01.161Z,21.52
2023-04-23T04:13:27.451Z,21.80
2023-04-23T04:15:53.801Z,20.67
2023-04-23T04:18:20.888Z,21.72
2023-04-23T04:20:47.257Z,21.50
2023-04-23T04:23:13.860Z,21.37
2023-04-23T04:25:40.750Z,19.99
2023-04-23T04:28:11.807Z,20.47
2023-04-23T04:30:39.478Z,20.32
2023-04-23T04:33:06.152Z,20.71
2023-04-23T04:35:32.544Z,21.06
2023-04-23T04:37:59.037Z,21.29
2023-04-23T04:40:26.531Z,21.22
2023-04-23T04:42:52.999Z,21.42
2023-04-23T04:45:19.710Z,21.95
2023-04-23T04:47:46.113Z,22.38
2023-04-23T04:50:12.606Z,22.59
2023-04-23T04:52:39.029Z,22.52
2023-04-23T04:55:07.085Z,21.95
2023-04-23T04:57:33.463Z,22.42
2023-04-23T05:00:03.057Z,22.09
2023-04-23T05:02:29.582Z,21.59
2023-04-23T05:04:56.053Z,21.74
2023-04-23T05:07:22.404Z,21.91
2023-04-23T05:09:48.859Z,22.07
2023-04-23T05:12:15.422Z,22.23
2023-04-23T05:14:41.963Z,22.21
2023-04-23T05:17:08.564Z,22.12
2023-04-23T05:19:34.958Z,21.99
2023-04-23T05:22:03.180Z,21.82
2023-04-23T05:24:29.627Z,21.74
2023-04-23T05:26:56.578Z,21.91
2023-04-23T05:29:23.044Z,21.91
2023-04-23T05:31:49.446Z,21.86
2023-04-23T05:34:16.022Z,21.95
2023-04-23T05:36:42.482Z,22.64
2023-04-23T05:39:09.222Z,22.02
2023-04-23T05:41:35.650Z,21.92
2023-04-23T05:44:02.060Z,21.77
2023-04-23T05:46:28.736Z,21.73
2023-04-23T05:48:55.206Z,22.01
2023-04-23T05:51:22.122Z,21.80
2023-04-23T05:53:48.509Z,22.03
2023-04-23T05:56:14.942Z,22.36
2023-04-23T05:58:41.414Z,22.17
2023-04-23T06:01:07.882Z,21.89
2023-04-23T06:03:34.838Z,22.16
2023-04-23T06:06:01.404Z,22.23
2023-04-23T06:08:28.065Z,22.42
2023-04-23T06:10:56.042Z,22.37
2023-04-23T06:13:22.463Z,22.21
2023-04-23T06:15:49.139Z,22.43
2023-04-23T06:18:15.602Z,22.38
2023-04-23T06:20:42.230Z,22.42
2023-04-23T06:23:08.624Z,22.48
2023-04-23T06:25:34.998Z,22.64
2023-04-23T06:28:01.417Z,22.80
2023-04-23T06:30:27.833Z,22.77
2023-04-23T06:32:54.213Z,22.90
2023-04-23T06:35:20.626Z,22.80
2023-04-23T06:37:46.985Z,22.66
2023-04-23T06:40:13.389Z,22.75
2023-04-23T06:42:39.838Z,22.38
2023-04-23T06:45:07.089Z,22.71
2023-04-23T06:47:33.638Z,22.80
2023-04-23T06:50:00.233Z,23.24
2023-04-23T06:52:27.018Z,23.11
2023-04-23T06:54:53.559Z,23.03
2023-04-23T06:57:19.974Z,22.92
2023-04-23T06:59:46.471Z,23.07
2023-04-23T07:02:12.939Z,23.16
2023-04-23T07:04:39.819Z,23.36
2023-04-23T07:07:07.018Z,23.46
2023-04-23T07:09:33.390Z,23.35
2023-04-23T07:11:59.794Z,23.63
2023-04-23T07:14:26.406Z,23.72
2023-04-23T07:16:54.501Z,23.67
2023-04-23T07:19:20.984Z,23.77
2023-04-23T07:21:47.382Z,23.52
2023-04-23T07:24:13.799Z,23.84
2023-04-23T07:26:40.265Z,23.96
2023-04-23T07:29:07.943Z,23.64
2023-04-23T07:31:34.618Z,23.81
2023-04-23T07:34:01.316Z,23.92
2023-04-23T07:36:28.219Z,24.37
2023-04-23T07:38:54.759Z,25.08
2023-04-23T07:41:21.214Z,24.92
2023-04-23T07:43:47.617Z,24.73
2023-04-23T07:46:14.916Z,25.27
2023-04-23T07:48:41.322Z,24.99
2023-04-23T07:51:08.308Z,25.00
2023-04-23T07:53:35.025Z,25.16
2023-04-23T07:56:01.470Z,24.77
2023-04-23T07:58:27.842Z,25.08
2023-04-23T08:00:54.251Z,25.34
2023-04-23T08:03:21.279Z,25.55
2023-04-23T08:05:48.218Z,25.72
2023-04-23T08:08:14.678Z,25.41
2023-04-23T08:10:41.207Z,25.30
2023-04-23T08:13:11.402Z,25.66
2023-04-23T08:15:38.004Z,25.84
2023-04-23T08:18:04.800Z,25.76
2023-04-23T08:20:32.382Z,26.09
2023-04-23T08:22:59.030Z,26.05
2023-04-23T08:25:25.504Z,26.19
2023-04-23T08:27:52.426Z,26.31
2023-04-23T08:30:18.846Z,26.66
2023-04-23T08:32:49.279Z,26.34
2023-04-23T08:35:15.707Z,26.61
2023-04-23T08:37:42.452Z,26.85
2023-04-23T08:40:09.596Z,26.98
2023-04-23T08:43:19.075Z,27.34
2023-04-23T08:45:49.152Z,27.35
2023-04-23T08:48:15.732Z,27.34
2023-04-23T08:50:43.177Z,27.33
2023-04-23T08:53:10.050Z,27.75
2023-04-23T08:55:36.684Z,27.21
2023-04-23T08:58:06.290Z,26.15
2023-04-23T09:00:34.583Z,26.70
2023-04-23T09:03:01.748Z,27.18
2023-04-23T09:05:28.642Z,27.43
2023-04-23T09:07:56.681Z,26.73
2023-04-23T09:10:23.507Z,27.46
2023-04-23T09:12:49.892Z,28.13
2023-04-23T09:15:17.050Z,28.07
2023-04-23T09:17:45.192Z,28.51
2023-04-23T09:20:13.036Z,28.96
2023-04-23T09:22:47.434Z,29.14
2023-04-23T09:25:17.334Z,28.22
2023-04-23T09:27:44.551Z,28.51
2023-04-23T09:30:11.781Z,28.97
2023-04-23T09:32:41.452Z,29.56
2023-04-23T09:35:10.179Z,29.32
2023-04-23T09:37:37.116Z,29.12
2023-04-23T09:40:09.331Z,29.46
2023-04-23T09:42:36.950Z,29.77
2023-04-23T09:45:08.138Z,28.71
2023-04-23T09:47:35.674Z,28.20
2023-04-23T09:50:02.285Z,28.38
2023-04-23T09:52:31.489Z,28.69
2023-04-23T09:55:01.850Z,28.79
2023-04-23T09:57:28.372Z,29.39
2023-04-23T10:00:11.133Z,29.21
2023-04-23T10:02:49.544Z,29.24
2023-04-23T10:05:24.224Z,29.82
2023-04-23T10:07:56.377Z,28.63
2023-04-23T10:10:23.730Z,29.13
2023-04-23T10:12:55.198Z,29.42
2023-04-23T10:15:23.585Z,29.86
2023-04-23T10:17:51.202Z,30.04
2023-04-23T10:20:18.155Z,29.98
2023-04-23T10:22:45.577Z,30.48
2023-04-23T10:25:13.219Z,30.58
2023-04-23T10:27:53.679Z,29.41
2023-04-23T10:30:22.177Z,30.14
2023-04-23T10:32:49.519Z,30.26
2023-04-23T10:35:16.686Z,30.38
2023-04-23T10:37:44.870Z,29.53
2023-04-23T10:40:14.185Z,29.21
2023-04-23T10:42:41.604Z,30.07
2023-04-23T10:47:48.323Z,31.26
2023-04-23T10:50:29.368Z,31.41
2023-04-23T10:52:57.625Z,30.48
2023-04-23T10:55:26.698Z,30.37
2023-04-23T10:58:07.504Z,30.44
2023-04-23T11:00:43.230Z,31.05
2023-04-23T11:03:44.496Z,30.85
2023-04-23T11:06:21.974Z,31.03
2023-04-23T11:08:58.560Z,30.87
2023-04-23T11:11:39.973Z,31.36
2023-04-23T11:14:16.095Z,32.50
2023-04-23T11:16:44.304Z,31.78
2023-04-23T11:19:12.416Z,32.07
2023-04-23T11:22:02.092Z,31.63
2023-04-23T11:24:30.888Z,31.50
2023-04-23T11:26:58.061Z,31.38
2023-04-23T11:29:26.505Z,31.34
2023-04-23T11:32:02.693Z,30.99
2023-04-23T11:34:30.364Z,30.84
2023-04-23T11:36:58.989Z,30.46
2023-04-23T11:39:25.838Z,30.61
2023-04-23T11:41:53.536Z,31.26
2023-04-23T11:44:21.257Z,30.93
2023-04-23T11:46:49.385Z,31.85
2023-04-23T11:49:17.117Z,32.01
2023-04-23T11:51:44.560Z,31.44
2023-04-23T11:54:12.122Z,31.49
2023-04-23T11:56:38.642Z,31.14
2023-04-23T11:59:05.758Z,31.87
2023-04-23T12:01:53.554Z,32.27
2023-04-23T12:04:21.860Z,32.17
2023-04-23T12:06:50.037Z,31.65
2023-04-23T12:09:17.879Z,31.62
2023-04-23T12:11:45.599Z,31.91
2023-04-23T12:14:14.196Z,32.45
2023-04-23T12:16:45.756Z,31.76
2023-04-23T12:19:16.818Z,31.84
2023-04-23T12:21:57.091Z,32.04
2023-04-23T12:24:31.929Z,31.92
2023-04-23T12:27:01.138Z,32.15
2023-04-23T12:29:30.654Z,31.94
2023-04-23T12:31:59.414Z,32.03
2023-04-23T12:34:25.987Z,31.79
2023-04-23T12:36:54.834Z,32.10
2023-04-23T12:39:32.017Z,32.13
2023-04-23T12:42:02.828Z,33.03
2023-04-23T12:44:29.538Z,32.91
2023-04-23T12:46:58.138Z,32.60
2023-04-23T12:49:27.347Z,32.47
2023-04-23T12:51:57.436Z,31.63
2023-04-23T12:54:25.641Z,31.50
2023-04-23T12:56:52.393Z,30.44
2023-04-23T12:59:18.837Z,30.53
2023-04-23T13:01:45.628Z,31.06
2023-04-23T13:04:12.141Z,31.22
2023-04-23T13:06:38.636Z,30.95
2023-04-23T13:09:05.365Z,31.74
2023-04-23T13:11:32.722Z,32.21
2023-04-23T13:13:59.176Z,32.75
2023-04-23T13:16:25.822Z,32.75
2023-04-23T13:18:52.298Z,33.02
2023-04-23T13:21:19.204Z,33.70
2023-04-23T13:23:45.790Z,34.43
2023-04-23T13:26:12.376Z,34.88
2023-04-23T13:28:38.936Z,34.98
2023-04-23T13:31:06.426Z,34.98
2023-04-23T13:33:33.057Z,34.48
2023-04-23T13:36:01.157Z,34.33
2023-04-23T13:38:28.306Z,34.01
2023-04-23T13:40:54.754Z,33.57
2023-04-23T13:43:21.226Z,32.92
2023-04-23T13:45:48.038Z,33.51
2023-04-23T13:48:15.101Z,34.37
2023-04-23T13:50:42.302Z,34.29
2023-04-23T13:53:09.730Z,33.91
2023-04-23T13:55:36.736Z,33.97
2023-04-23T13:58:04.105Z,33.63
2023-04-23T14:00:31.080Z,33.46
2023-04-23T14:02:57.740Z,33.12
2023-04-23T14:05:24.239Z,32.63
2023-04-23T14:07:50.864Z,31.97
2023-04-23T14:10:17.739Z,32.29
2023-04-23T14:12:45.825Z,32.54
2023-04-23T14:15:12.482Z,32.72
2023-04-23T14:17:40.524Z,32.56
2023-04-23T14:20:07.684Z,32.68
2023-04-23T14:22:34.250Z,32.13
2023-04-23T14:25:08.907Z,32.04
2023-04-23T14:27:50.451Z,31.77
2023-04-23T14:30:19.866Z,31.55
2023-04-23T14:32:49.397Z,31.38
2023-04-23T14:35:16.779Z,31.13
2023-04-23T14:37:45.358Z,31.12
2023-04-23T14:40:15.740Z,30.88
2023-04-23T14:42:42.139Z,30.95
2023-04-23T14:45:09.038Z,30.43
2023-04-23T14:47:35.490Z,29.84
2023-04-23T14:50:02.009Z,30.13
2023-04-23T14:52:28.549Z,30.39
2023-04-23T14:54:55.884Z,30.80
2023-04-23T14:57:22.635Z,29.85
2023-04-23T14:59:49.027Z,29.62
2023-04-23T15:02:15.600Z,29.21
2023-04-23T15:04:42.103Z,28.58
2023-04-23T15:07:08.519Z,28.90
2023-04-23T15:09:34.970Z,28.28
2023-04-23T15:12:04.094Z,27.23
2023-04-23T15:14:37.471Z,27.42
2023-04-23T15:17:04.205Z,25.85
2023-04-23T15:19:31.255Z,25.65
2023-04-23T15:21:57.694Z,25.61
2023-04-23T15:24:24.138Z,26.20
2023-04-23T15:26:53.228Z,26.30
2023-04-23T15:29:20.070Z,26.23
2023-04-23T15:31:46.583Z,26.55
2023-04-23T15:34:13.152Z,26.84
2023-04-23T15:36:39.702Z,26.91
2023-04-23T15:39:07.477Z,27.93
2023-04-23T15:41:37.060Z,28.46
2023-04-23T15:44:05.049Z,28.88
2023-04-23T15:46:31.475Z,28.90
2023-04-23T15:48:57.840Z,28.56
2023-04-23T15:51:24.233Z,28.44
2023-04-23T15:53:51.456Z,28.52
2023-04-23T15:56:17.901Z,27.00
2023-04-23T15:58:44.259Z,26.23
2023-04-23T16:01:11.762Z,26.67
2023-04-23T16:03:38.324Z,27.04
2023-04-23T16:06:05.149Z,27.07
2023-04-23T16:08:32.238Z,27.51
2023-04-23T16:10:59.329Z,27.67
2023-04-23T16:13:27.397Z,27.79
2023-04-23T16:15:53.878Z,29.05
2023-04-23T16:18:20.566Z,28.77
2023-04-23T16:20:47.228Z,28.11
2023-04-23T16:23:14.426Z,27.93
2023-04-23T16:25:41.323Z,27.98
2023-04-23T16:28:07.730Z,28.28
2023-04-23T16:30:34.290Z,28.29
2023-04-23T16:33:00.729Z,28.19
2023-04-23T16:35:27.298Z,28.03
2023-04-23T16:37:53.845Z,27.94
2023-04-23T16:40:21.428Z,27.74
2023-04-23T16:42:48.817Z,27.35
2023-04-23T16:45:15.585Z,27.57
2023-04-23T16:47:43.868Z,27.44
2023-04-23T16:50:10.926Z,27.21
2023-04-23T16:52:37.356Z,28.13
2023-04-23T16:55:04.711Z,28.22
2023-04-23T16:57:31.551Z,28.57
2023-04-23T16:59:58.049Z,27.35
2023-04-23T17:02:24.648Z,27.09
2023-04-23T17:04:51.365Z,24.87
2023-04-23T17:07:17.936Z,24.96
2023-04-23T17:09:44.386Z,24.66
2023-04-23T17:12:11.061Z,24.43
2023-04-23T17:14:37.445Z,24.83
2023-04-23T17:17:03.894Z,24.85
2023-04-23T17:19:30.400Z,24.45
2023-04-23T17:21:56.860Z,24.31
2023-04-23T17:24:23.411Z,24.40
2023-04-23T17:26:49.965Z,24.42
2023-04-23T17:29:16.495Z,24.22
2023-04-23T17:31:43.199Z,24.05
2023-04-23T17:34:09.601Z,23.92
2023-04-23T17:36:36.020Z,25.08
2023-04-23T17:39:02.981Z,25.75
2023-04-23T17:41:30.007Z,25.73
2023-04-23T17:43:56.388Z,26.03
2023-04-23T17:46:22.852Z,26.19
2023-04-23T17:48:49.356Z,26.26
2023-04-23T17:51:15.966Z,26.31
2023-04-23T17:53:42.612Z,24.74
2023-04-23T17:56:09.160Z,24.73
2023-04-23T17:58:36.126Z,24.63
2023-04-23T18:01:04.723Z,24.71
2023-04-23T18:03:32.180Z,24.61
2023-04-23T18:05:58.886Z,24.48
2023-04-23T18:08:25.430Z,24.46
2023-04-23T18:10:51.916Z,24.54
2023-04-23T18:13:18.365Z,24.71
2023-04-23T18:15:49.655Z,24.66
2023-04-23T18:18:17.128Z,24.56
2023-04-23T18:20:44.248Z,24.47
2023-04-23T18:23:11.673Z,24.32
2023-04-23T18:25:38.333Z,24.07
2023-04-23T18:28:04.996Z,23.88
2023-04-23T18:30:31.423Z,24.00
2023-04-23T18:33:26.118Z,24.25
2023-04-23T18:35:55.925Z,24.07
2023-04-23T18:38:31.857Z,24.11
2023-04-23T18:41:02.627Z,24.01
2023-04-23T18:43:29.174Z,24.11
2023-04-23T18:45:55.965Z,24.05
2023-04-23T18:48:34.513Z,23.96
2023-04-23T18:51:33.137Z,22.79
2023-04-23T18:54:01.684Z,22.87
2023-04-23T18:56:28.124Z,24.69
2023-04-23T18:58:54.456Z,24.15
2023-04-23T19:01:20.861Z,24.12
2023-04-23T19:03:47.623Z,24.06
2023-04-23T19:06:13.966Z,24.21
2023-04-23T19:08:42.225Z,25.07
2023-04-23T19:11:08.558Z,24.46
2023-04-23T19:13:34.839Z,24.21
2023-04-23T19:16:01.212Z,23.94
2023-04-23T19:18:27.507Z,23.89
2023-04-23T19:20:53.824Z,23.80
2023-04-23T19:23:20.182Z,23.83
2023-04-23T19:25:46.477Z,23.94
2023-04-23T19:28:13.100Z,23.82
2023-04-23T19:30:39.445Z,23.68
2023-04-23T19:33:05.869Z,24.37
2023-04-23T19:35:32.308Z,25.01
2023-04-23T19:37:58.961Z,25.01
2023-04-23T19:40:25.251Z,23.90
2023-04-23T19:42:51.698Z,23.80
2023-04-23T19:45:18.537Z,23.67
2023-04-23T19:47:44.945Z,23.71
2023-04-23T19:50:12.308Z,23.78
2023-04-23T19:52:38.684Z,23.34
2023-04-23T19:55:05.514Z,23.16
2023-04-23T19:57:31.989Z,23.19
2023-04-23T19:59:58.303Z,23.22
2023-04-23T20:02:24.727Z,23.54
2023-04-23T20:04:51.225Z,23.60
2023-04-23T20:07:17.566Z,23.39
2023-04-23T20:09:44.349Z,23.27
2023-04-23T20:12:10.961Z,23.37
2023-04-23T20:14:37.450Z,23.60
2023-04-23T20:17:03.851Z,23.60
2023-04-23T20:19:31.263Z,23.69
2023-04-23T20:21:57.675Z,23.63
2023-04-23T20:24:24.030Z,24.01
2023-04-23T20:26:50.932Z,24.04
2023-04-23T20:29:17.245Z,23.96
2023-04-23T20:31:43.646Z,24.04
2023-04-23T20:34:10.976Z,24.10
2023-04-23T20:36:38.896Z,23.73
2023-04-23T20:39:05.245Z,23.46
2023-04-23T20:41:32.109Z,23.41
2023-04-23T20:43:58.682Z,23.06
2023-04-23T20:46:25.378Z,22.94
2023-04-23T20:48:55.389Z,22.89
2023-04-23T20:51:22.502Z,22.80
2023-04-23T20:53:49.170Z,23.62
2023-04-23T20:56:15.644Z,23.15
2023-04-23T20:58:41.973Z,22.93
2023-04-23T21:01:11.262Z,22.30
2023-04-23T21:03:38.233Z,22.78
2023-04-23T21:06:05.380Z,22.70
2023-04-23T21:08:31.844Z,22.72
2023-04-23T21:10:58.239Z,22.71
2023-04-23T21:13:25.010Z,23.55
2023-04-23T21:15:51.735Z,23.42
2023-04-23T21:18:18.278Z,24.07
2023-04-23T21:20:45.768Z,24.15
2023-04-23T21:23:12.226Z,24.33
2023-04-23T21:25:38.916Z,24.31
2023-04-23T21:28:05.363Z,24.05
2023-04-23T21:30:31.870Z,24.13
2023-04-23T21:32:58.253Z,24.19
2023-04-23T21:35:24.613Z,23.27
2023-04-23T21:37:50.926Z,22.81
2023-04-23T21:40:17.253Z,22.66
2023-04-23T21:42:44.810Z,22.37
2023-04-23T21:45:11.224Z,22.43
2023-04-23T21:47:37.583Z,22.55
2023-04-23T21:50:04.745Z,22.11
2023-04-23T21:52:31.206Z,21.95
2023-04-23T21:54:57.523Z,21.32
2023-04-23T21:57:23.863Z,21.53
2023-04-23T21:59:50.409Z,22.23
2023-04-23T22:02:16.882Z,21.96
2023-04-23T22:04:44.676Z,22.99
2023-04-23T22:07:13.592Z,23.15
2023-04-23T22:09:40.835Z,23.64
2023-04-23T22:12:08.031Z,23.59
2023-04-23T22:14:34.679Z,23.91
2023-04-23T22:17:02.047Z,24.61
2023-04-23T22:19:28.716Z,24.53
2023-04-23T22:21:55.218Z,23.44
2023-04-23T22:24:21.514Z,22.72
2023-04-23T22:26:47.882Z,22.75
2023-04-23T22:29:14.183Z,21.96
2023-04-23T22:31:40.547Z,22.20
2023-04-23T22:34:07.370Z,22.35
2023-04-23T22:36:34.490Z,21.77
2023-04-23T22:39:01.829Z,21.68
2023-04-23T22:41:28.127Z,23.03
2023-04-23T22:43:54.415Z,22.06
2023-04-23T22:46:21.039Z,22.03
2023-04-23T22:48:47.696Z,22.00
2023-04-23T22:51:14.356Z,22.03
2023-04-23T22:53:40.747Z,22.08
2023-04-23T22:56:07.481Z,22.81
2023-04-23T22:58:33.780Z,22.98
2023-04-23T23:01:00.381Z,22.79
2023-04-23T23:03:26.901Z,23.08
2023-04-23T23:05:53.381Z,22.90
2023-04-23T23:08:19.692Z,23.02
2023-04-23T23:10:45.962Z,22.74
2023-04-23T23:13:12.231Z,22.86
2023-04-23T23:15:38.754Z,22.94
2023-04-23T23:18:06.103Z,22.73
2023-04-23T23:20:32.475Z,22.65
2023-04-23T23:22:58.769Z,22.14
2023-04-23T23:25:25.051Z,22.24
2023-04-23T23:27:51.365Z,21.98
2023-04-23T23:30:17.670Z,21.84
2023-04-23T23:32:44.055Z,22.07
2023-04-23T23:35:10.390Z,21.76
2023-04-23T23:37:36.679Z,22.27
2023-04-23T23:40:05.481Z,22.04
2023-04-23T23:42:31.867Z,22.52
2023-04-23T23:44:58.186Z,22.94
2023-04-23T23:47:24.479Z,23.12
2023-04-23T23:49:50.852Z,22.83
2023-04-23T23:52:17.140Z,22.98
2023-04-23T23:54:43.455Z,22.99
2023-04-23T23:57:10.077Z,22.37
2023-04-23T23:59:36.535Z,22.69
